Time;durP1;ratioP1;P1;durP2;ratioP2;P2;SDS_P1;SDS_P2;PMS_P1;PMS_P2;Temp;Humidity;BMP_temperature;BMP_pressure;BME280_temperature;BME280_humidity;BME280_pressure;Samples;Min_cycle;Max_cycle;Signal;HPM_P1;HPM_P2
2023/03/06 00:00:42;;;;;;;3.50;2.42;;;5.30;99.90;;;5.20;69.46;99960.81;5030901;28;20206;-66
2023/03/06 00:03:09;;;;;;;1.58;1.40;;;5.30;99.90;;;5.21;69.55;99959.91;5015994;28;20190;-65
2023/03/06 00:05:36;;;;;;;3.60;2.20;;;5.30;99.90;;;5.20;69.45;99955.63;5018501;28;20230;-65
2023/03/06 00:08:03;;;;;;;2.83;1.73;;;5.30;99.90;;;5.20;69.54;99950.47;5011741;28;20636;-66
2023/03/06 00:10:31;;;;;;;2.50;1.70;;;5.30;99.90;;;5.20;69.21;99943.53;5015752;28;20191;-65
2023/03/06 00:13:02;;;;;;;3.45;2.15;;;5.30;99.90;;;5.18;69.55;99935.03;5010942;28;20205;-65
2023/03/06 00:15:29;;;;;;;2.15;1.95;;;5.30;99.90;;;5.18;69.66;99940.22;5012765;28;20222;-66
2023/03/06 00:17:57;;;;;;;2.63;1.90;;;5.30;99.90;;;5.15;69.64;99937.00;5031014;28;20674;-65
2023/03/06 00:20:25;;;;;;;2.08;1.33;;;5.30;99.90;;;5.12;70.23;99934.59;5001162;28;20211;-65
2023/03/06 00:22:54;;;;;;;1.58;1.40;;;5.20;99.90;;;5.07;70.52;99926.28;5012480;28;20207;-65
2023/03/06 00:25:22;;;;;;;2.55;2.28;;;5.20;99.90;;;5.08;70.34;99925.34;5011071;28;20231;-66
2023/03/06 00:27:49;;;;;;;1.50;1.30;;;5.20;99.90;;;5.08;70.34;99920.19;5010888;28;20675;-65
2023/03/06 00:30:20;;;;;;;1.63;1.15;;;5.20;99.90;;;5.01;70.43;99922.31;5013760;28;20199;-67
2023/03/06 00:32:47;;;;;;;1.48;1.38;;;5.10;99.90;;;5.03;70.55;99919.63;5020448;28;20194;-67
2023/03/06 00:35:14;;;;;;;3.15;1.83;;;5.20;99.90;;;5.04;70.52;99923.88;5012512;28;20233;-66
2023/03/06 00:37:41;;;;;;;4.90;2.05;;;5.10;99.90;;;5.05;70.65;99923.78;5010729;28;20714;-66
2023/03/06 00:40:15;;;;;;;1.95;1.52;;;5.10;99.90;;;5.04;70.57;99916.97;5015551;28;20226;-65
2023/03/06 00:42:42;;;;;;;7.40;2.15;;;5.20;99.90;;;5.06;70.84;99925.47;5011204;28;20689;-67
2023/03/06 00:45:10;;;;;;;3.08;2.63;;;5.20;99.90;;;5.07;70.40;99918.53;5011178;28;20230;-66
2023/03/06 00:47:38;;;;;;;1.88;1.65;;;5.20;99.90;;;5.09;70.29;99921.84;5011687;28;20285;-66
2023/03/06 00:50:05;;;;;;;3.00;1.80;;;5.20;99.90;;;5.07;70.46;99919.34;5022899;28;20700;-65
2023/03/06 00:52:32;;;;;;;2.30;2.10;;;5.20;99.90;;;5.10;71.13;99915.75;5031132;28;20201;-65
2023/03/06 00:54:59;;;;;;;3.83;2.33;;;5.20;99.90;;;5.10;70.66;99915.75;5029886;28;20225;-66
2023/03/06 00:57:26;;;;;;;2.58;1.98;;;5.20;99.90;;;5.10;70.71;99911.41;5016003;28;20679;-66
2023/03/06 00:59:53;;;;;;;2.55;1.48;;;5.20;99.90;;;5.09;70.94;99906.34;5011573;28;20198;-65
2023/03/06 01:02:20;;;;;;;2.90;2.17;;;5.20;99.90;;;5.06;70.96;99904.78;5010441;28;20202;-65
2023/03/06 01:04:47;;;;;;;2.08;1.83;;;5.20;99.90;;;5.03;71.14;99901.53;5012224;28;20219;-65
2023/03/06 01:07:14;;;;;;;4.03;2.13;;;5.20;99.90;;;5.04;71.23;99903.19;5011575;28;20639;-66
2023/03/06 01:09:41;;;;;;;2.50;2.30;;;5.20;99.90;;;5.00;71.38;99893.97;5013288;28;20678;-65
2023/03/06 01:12:08;;;;;;;3.45;2.17;;;5.10;99.90;;;5.01;71.34;99900.78;5011018;28;20213;-65
2023/03/06 01:14:35;;;;;;;3.38;2.72;;;5.10;99.90;;;5.00;71.28;99886.22;5009663;28;20601;-66
2023/03/06 01:17:02;;;;;;;3.15;2.45;;;5.10;99.90;;;5.01;71.40;99882.69;5009311;28;20203;-65
2023/03/06 01:19:29;;;;;;;4.25;2.85;;;5.20;99.90;;;4.96;71.72;99882.16;5019188;28;20748;-66
2023/03/06 01:21:56;;;;;;;5.43;2.50;;;5.10;99.90;;;4.94;72.05;99877.06;5012642;28;20278;-67
2023/03/06 01:24:24;;;;;;;2.53;2.35;;;5.10;99.90;;;4.94;71.65;99874.47;5012828;28;20667;-65
2023/03/06 01:26:51;;;;;;;3.25;2.72;;;5.10;99.90;;;4.88;71.86;99868.84;5005020;28;20217;-66
2023/03/06 01:29:18;;;;;;;2.10;1.60;;;5.10;99.90;;;4.91;72.14;99863.50;5017907;28;20198;-65
2023/03/06 01:31:45;;;;;;;2.97;2.67;;;5.00;99.90;;;4.95;71.87;99852.88;5030266;28;20563;-65
2023/03/06 01:34:12;;;;;;;2.17;2.08;;;5.10;99.90;;;4.94;71.76;99846.03;5020774;28;20223;-65
2023/03/06 01:36:39;;;;;;;4.05;2.72;;;5.10;99.90;;;4.90;71.98;99844.56;5021088;28;20198;-65
2023/03/06 01:39:06;;;;;;;3.40;2.95;;;5.10;99.90;;;4.84;71.92;99834.59;5026751;28;20202;-65
2023/03/06 01:41:33;;;;;;;2.75;1.73;;;5.00;99.90;;;4.82;71.96;99840.78;5024032;28;20199;-66
2023/03/06 01:44:00;;;;;;;1.08;0.82;;;5.00;99.90;;;4.84;71.90;99838.94;5013386;28;20236;-65
2023/03/06 01:46:44;;;;;;;3.85;2.25;;;4.90;99.90;;;4.86;72.14;99832.75;5007136;28;20230;-67
2023/03/06 01:49:28;;;;;;;2.40;2.20;;;5.00;99.90;;;4.85;72.58;99832.88;5011093;28;20202;-65
2023/03/06 01:52:05;;;;;;;4.57;2.35;;;5.00;99.90;;;4.84;72.15;99826.84;5005004;28;20195;-65
2023/03/06 01:54:39;;;;;;;1.50;1.40;;;5.00;99.90;;;4.81;72.05;99819.31;4994283;28;20218;-66
2023/03/06 01:57:13;;;;;;;2.17;2.03;;;5.00;99.90;;;4.81;72.38;99823.63;5011122;28;20663;-66
2023/03/06 01:59:42;;;;;;;0.93;0.93;;;5.00;99.90;;;4.82;72.34;99826.13;4996241;28;20202;-66
2023/03/06 02:02:11;;;;;;;3.40;2.63;;;5.00;99.90;;;4.84;72.01;99823.44;5010889;28;20211;-65
2023/03/06 02:04:40;;;;;;;1.55;1.42;;;5.00;99.90;;;4.79;72.29;99820.31;5013434;28;20226;-67
2023/03/06 02:07:08;;;;;;;1.25;1.15;;;4.90;99.90;;;4.77;72.35;99822.16;5012127;28;20717;-65
2023/03/06 02:09:37;;;;;;;2.03;1.30;;;4.90;99.90;;;4.78;72.23;99823.81;5008890;28;20210;-65
2023/03/06 02:12:10;;;;;;;2.50;1.73;;;4.90;99.90;;;4.75;72.66;99824.00;5008521;28;20203;-67
2023/03/06 02:14:39;;;;;;;0.88;0.88;;;4.90;99.90;;;4.73;72.53;99814.59;5014656;28;20222;-65
2023/03/06 02:17:08;;;;;;;2.72;1.70;;;4.90;99.90;;;4.70;72.81;99819.13;5017146;28;20211;-66
2023/03/06 02:20:28;;;;;;;2.03;1.83;;;4.80;99.90;;;4.70;72.32;99817.38;5010378;28;20694;-66
2023/03/06 02:23:07;;;;;;;2.90;1.70;;;4.90;99.90;;;4.72;72.73;99812.94;5002958;28;20206;-65
2023/03/06 02:25:47;;;;;;;1.30;0.95;;;4.90;99.90;;;4.71;73.23;99815.59;5010777;28;20308;-66
2023/03/06 02:28:18;;;;;;;1.02;0.98;;;4.80;99.90;;;4.73;73.23;99811.16;5027531;28;20245;-66
2023/03/06 02:30:48;;;;;;;1.88;0.60;;;4.80;99.90;;;4.72;72.97;99814.69;5013876;28;20218;-65
2023/03/06 02:33:19;;;;;;;2.72;2.33;;;4.90;99.90;;;4.70;72.80;99806.22;5002668;28;20282;-65
2023/03/06 02:35:54;;;;;;;2.25;1.50;;;4.80;99.90;;;4.73;72.79;99793.91;5028504;28;20209;-66
2023/03/06 02:38:36;;;;;;;2.20;2.00;;;4.90;99.90;;;4.76;73.04;99792.06;5021628;28;20206;-65
2023/03/06 02:41:07;;;;;;;4.13;1.75;;;4.90;99.90;;;4.78;72.78;99782.47;5007080;28;20199;-66
2023/03/06 02:43:38;;;;;;;3.47;1.95;;;4.90;99.90;;;4.78;72.95;99791.06;4992418;28;20235;-66
2023/03/06 02:46:05;;;;;;;1.60;1.50;;;4.90;99.90;;;4.79;72.78;99786.72;5013002;28;20227;-65
2023/03/06 02:48:33;;;;;;;2.85;2.15;;;4.90;99.90;;;4.78;72.78;99782.47;5017521;28;20289;-65
2023/03/06 02:51:00;;;;;;;2.03;1.63;;;4.90;99.90;;;4.72;73.11;99778.50;5021190;28;20244;-65
2023/03/06 02:53:27;;;;;;;2.67;1.75;;;4.90;99.90;;;4.69;72.45;99771.78;5017559;28;20205;-66
2023/03/06 02:55:54;;;;;;;2.13;1.95;;;4.80;99.90;;;4.68;72.79;99772.69;5013913;28;20206;-65
2023/03/06 02:58:21;;;;;;;0.50;0.50;;;4.80;99.90;;;4.67;72.75;99773.63;5009154;28;20202;-65
2023/03/06 03:00:49;;;;;;;2.83;2.20;;;4.80;99.90;;;4.65;73.03;99767.72;5010767;28;20545;-65
2023/03/06 03:03:16;;;;;;;3.20;2.38;;;4.80;99.90;;;4.68;73.09;99770.09;5013902;28;20207;-65
2023/03/06 03:05:43;;;;;;;2.30;1.73;;;4.80;99.90;;;4.66;73.03;99771.94;5012591;28;20221;-68
2023/03/06 03:08:10;;;;;;;2.70;1.55;;;4.80;99.90;;;4.65;72.92;99765.13;5006068;28;20200;-65
2023/03/06 03:10:37;;;;;;;2.22;2.05;;;4.80;99.90;;;4.65;72.89;99765.13;5007271;28;20826;-65
2023/03/06 03:13:04;;;;;;;1.45;1.35;;;4.80;99.90;;;4.67;72.90;99757.28;5012306;28;20210;-66
2023/03/06 03:15:31;;;;;;;2.35;2.20;;;4.80;99.90;;;4.64;72.70;99760.88;5026519;28;20222;-65
2023/03/06 03:17:58;;;;;;;3.30;1.70;;;4.80;99.90;;;4.64;72.95;99760.06;5015049;28;20249;-67
2023/03/06 03:20:25;;;;;;;5.20;1.88;;;4.80;99.90;;;4.66;72.96;99764.19;5015291;28;20209;-68
2023/03/06 03:22:54;;;;;;;2.20;1.63;;;4.80;99.90;;;4.69;72.84;99758.03;5006646;28;20285;-65
2023/03/06 03:25:24;;;;;;;1.50;1.40;;;4.90;99.90;;;4.64;72.82;99760.06;5012097;28;20222;-65
2023/03/06 03:27:51;;;;;;;3.42;1.65;;;4.80;99.90;;;4.60;73.10;99759.41;5011570;28;20202;-65
2023/03/06 03:30:18;;;;;;;1.70;1.60;;;4.80;99.90;;;4.54;73.02;99752.03;5014819;28;20633;-65
2023/03/06 03:32:44;;;;;;;2.08;1.85;;;4.70;99.90;;;4.52;73.66;99751.31;5017836;28;20215;-65
2023/03/06 03:35:11;;;;;;;3.05;2.35;;;4.70;99.90;;;4.52;73.40;99750.47;5031404;28;20233;-65
2023/03/06 03:37:38;;;;;;;2.58;1.58;;;4.70;99.90;;;4.54;72.79;99748.63;5033806;28;20206;-65
2023/03/06 03:40:06;;;;;;;1.85;1.65;;;4.70;99.90;;;4.53;73.47;99744.41;5027428;28;20202;-65
2023/03/06 03:42:33;;;;;;;2.58;2.35;;;4.70;99.90;;;4.54;72.91;99749.47;4999962;28;20231;-66
2023/03/06 03:45:00;;;;;;;1.70;1.13;;;4.70;99.90;;;4.58;73.31;99756.09;5018554;28;20228;-65
2023/03/06 03:47:27;;;;;;;1.70;1.58;;;4.70;99.90;;;4.54;72.98;99740.88;5020192;28;20230;-65
2023/03/06 03:49:54;;;;;;;3.17;1.42;;;4.70;99.90;;;4.51;73.30;99744.50;5007753;28;20202;-64
2023/03/06 03:52:21;;;;;;;1.65;1.45;;;4.60;99.90;;;4.51;73.38;99741.06;5013469;28;20191;-66
2023/03/06 03:54:48;;;;;;;2.20;1.98;;;4.60;99.90;;;4.54;72.93;99743.47;5023229;28;20241;-66
2023/03/06 03:57:15;;;;;;;2.45;2.05;;;4.70;99.90;;;4.60;73.01;99740.50;5011378;28;20291;-66
2023/03/06 03:59:42;;;;;;;1.88;1.75;;;4.70;99.90;;;4.59;73.16;99736.25;5011079;28;20199;-65
2023/03/06 04:02:09;;;;;;;2.70;1.90;;;4.70;99.90;;;4.57;73.09;99738.94;5011704;28;20830;-66
2023/03/06 04:04:36;;;;;;;2.17;2.03;;;4.70;99.90;;;4.54;73.28;99738.28;5008039;28;20234;-68
2023/03/06 04:07:03;;;;;;;2.45;1.75;;;4.70;99.90;;;4.55;73.71;99732.22;5012463;28;20223;-66
2023/03/06 04:09:30;;;;;;;2.05;1.90;;;4.70;99.90;;;4.55;73.25;99730.47;4995840;28;20597;-68
2023/03/06 04:11:57;;;;;;;2.22;2.03;;;4.70;99.90;;;4.60;72.77;99731.00;5009689;28;20210;-67
2023/03/06 04:14:24;;;;;;;3.78;2.70;;;4.80;99.90;;;4.64;72.94;99729.88;5016946;28;20223;-68
2023/03/06 04:16:51;;;;;;;3.88;2.53;;;4.80;99.90;;;4.66;72.98;99728.03;5010346;28;20205;-68
2023/03/06 04:19:18;;;;;;;4.43;2.25;;;4.80;99.90;;;4.68;72.60;99727.94;5015907;28;20253;-67
2023/03/06 04:21:45;;;;;;;3.70;1.65;;;4.80;99.90;;;4.67;72.31;99729.69;5031892;28;20202;-66
2023/03/06 04:24:12;;;;;;;1.75;1.45;;;4.80;99.90;;;4.66;72.58;99722.84;5024752;28;20681;-66
2023/03/06 04:26:39;;;;;;;3.15;1.90;;;4.80;99.90;;;4.66;73.14;99722.84;5004358;28;20225;-67
2023/03/06 04:29:06;;;;;;;1.60;1.50;;;4.80;99.90;;;4.66;73.03;99722.06;5003461;28;20206;-65
2023/03/06 04:31:33;;;;;;;2.33;2.15;;;4.80;99.90;;;4.67;73.09;99719.38;5031313;28;20293;-67
2023/03/06 04:34:00;;;;;;;1.73;1.63;;;4.80;99.90;;;4.66;73.27;99711.72;5017563;28;20294;-66
2023/03/06 04:36:32;;;;;;;2.92;1.85;;;4.80;99.90;;;4.64;73.23;99714.38;5025195;28;20206;-66
2023/03/06 04:39:01;;;;;;;2.70;2.50;;;4.80;99.90;;;4.66;73.45;99706.56;5011889;28;20297;-66
2023/03/06 04:41:28;;;;;;;5.93;2.85;;;4.80;99.90;;;4.65;73.49;99713.47;5047327;28;20285;-65
2023/03/06 04:43:55;;;;;;;1.95;1.75;;;4.90;99.90;;;4.63;73.73;99702.41;5019262;28;20230;-65
2023/03/06 04:46:22;;;;;;;3.13;1.75;;;4.80;99.90;;;4.64;73.63;99703.25;5006631;28;20219;-64
2023/03/06 04:48:48;;;;;;;2.92;1.60;;;4.80;99.90;;;4.64;73.76;99701.47;5000913;28;20249;-64
2023/03/06 04:51:15;;;;;;;3.03;2.00;;;4.80;99.90;;;4.65;73.56;99700.56;5011405;28;20198;-66
2023/03/06 04:53:42;;;;;;;4.53;1.98;;;4.90;99.90;;;4.65;73.43;99694.53;5011391;28;20305;-64
2023/03/06 04:56:09;;;;;;;2.17;1.98;;;4.80;99.90;;;4.63;73.82;99691.22;5022303;28;20667;-65
2023/03/06 04:58:36;;;;;;;3.05;2.05;;;4.80;99.90;;;4.63;74.03;99696.41;5022670;28;20215;-65
2023/03/06 05:01:04;;;;;;;2.33;2.00;;;4.80;99.90;;;4.63;73.97;99697.22;5025924;28;20206;-64
2023/03/06 05:03:31;;;;;;;2.03;1.65;;;4.80;99.90;;;4.63;73.75;99692.06;5011374;28;20280;-65
2023/03/06 05:05:58;;;;;;;1.38;1.27;;;4.80;99.90;;;4.64;73.76;99692.91;5027079;28;20202;-65
2023/03/06 05:08:25;;;;;;;2.88;1.98;;;4.90;99.90;;;4.65;73.96;99695.38;5010908;28;20199;-65
2023/03/06 05:10:58;;;;;;;2.13;1.92;;;4.90;99.90;;;4.61;74.05;99687.91;5010463;28;20607;-65
2023/03/06 05:13:26;;;;;;;2.22;2.03;;;4.80;99.90;;;4.62;74.20;99694.75;5005649;28;20202;-64
2023/03/06 05:15:54;;;;;;;4.35;2.65;;;4.80;99.90;;;4.63;74.33;99689.47;5013491;28;20198;-65
2023/03/06 05:18:21;;;;;;;4.70;2.78;;;4.80;99.90;;;4.69;73.83;99689.09;5013257;28;20206;-66
2023/03/06 05:20:48;;;;;;;3.17;1.95;;;4.90;99.90;;;4.69;74.13;99694.25;5021293;28;20201;-65
2023/03/06 05:23:15;;;;;;;5.20;3.15;;;4.90;99.90;;;4.69;73.99;99691.69;5029861;28;20202;-64
2023/03/06 05:25:42;;;;;;;2.80;2.30;;;4.90;99.90;;;4.71;73.99;99695.00;5016697;28;20190;-63
2023/03/06 05:28:08;;;;;;;3.75;2.22;;;4.90;99.90;;;4.75;73.85;99692.22;5030434;28;20222;-66
2023/03/06 05:30:35;;;;;;;4.75;2.92;;;5.00;99.90;;;4.78;74.22;99687.69;5024308;28;20201;-65
2023/03/06 05:33:02;;;;;;;4.53;3.17;;;5.00;99.90;;;4.82;73.81;99690.91;5017207;28;20203;-65
2023/03/06 05:35:29;;;;;;;5.38;3.95;;;5.00;99.90;;;4.84;73.70;99681.28;5010672;28;20305;-65
2023/03/06 05:37:56;;;;;;;3.42;2.75;;;5.00;99.90;;;4.85;73.56;99686.38;5024264;28;20243;-64
2023/03/06 05:40:23;;;;;;;3.42;2.10;;;5.00;99.90;;;4.90;73.37;99678.34;5010517;28;20203;-65
2023/03/06 05:42:50;;;;;;;3.67;2.38;;;5.10;99.90;;;4.94;73.02;99684.97;5012390;28;20227;-65
2023/03/06 05:45:17;;;;;;;4.13;2.55;;;5.10;99.90;;;4.95;72.91;99671.94;5012595;28;20234;-65
2023/03/06 05:47:45;;;;;;;5.20;3.50;;;5.10;99.90;;;4.93;72.99;99678.97;5018926;28;20741;-66
2023/03/06 05:50:13;;;;;;;3.50;3.15;;;5.10;99.90;;;4.95;72.93;99681.44;5010369;28;20581;-65
2023/03/06 05:52:40;;;;;;;4.15;3.00;;;5.10;99.90;;;4.97;73.40;99677.84;5024305;28;20221;-66
2023/03/06 05:55:10;;;;;;;2.53;2.40;;;5.20;99.90;;;4.98;72.92;99676.94;5019017;28;20222;-65
2023/03/06 05:57:37;;;;;;;4.32;3.42;;;5.20;99.90;;;4.97;73.04;99671.84;5020735;28;20229;-66
2023/03/06 06:00:06;;;;;;;5.03;2.53;;;5.20;99.90;;;4.94;73.29;99674.63;5022951;28;20737;-65
2023/03/06 06:02:32;;;;;;;2.85;2.50;;;5.10;99.90;;;4.92;73.05;99671.31;5008892;28;20620;-65
2023/03/06 06:05:01;;;;;;;4.05;3.33;;;5.10;99.90;;;4.95;72.77;99676.28;5009920;28;20223;-64
2023/03/06 06:07:28;;;;;;;4.18;3.03;;;5.10;99.90;;;4.96;73.38;99673.56;5005511;28;20311;-64
2023/03/06 06:09:55;;;;;;;7.15;4.68;;;5.10;99.90;;;4.99;73.03;99672.56;5017224;28;20634;-65
2023/03/06 06:12:22;;;;;;;5.07;3.47;;;5.20;99.90;;;5.03;73.31;99674.03;5014538;28;20937;-64
2023/03/06 06:14:49;;;;;;;3.40;2.78;;;5.20;99.90;;;5.07;73.28;99673.72;5015189;28;20225;-66
2023/03/06 06:17:16;;;;;;;4.45;2.55;;;5.20;99.90;;;5.09;72.94;99669.28;5013933;28;20206;-66
2023/03/06 06:19:43;;;;;;;3.58;2.17;;;5.30;99.90;;;5.10;72.84;99665.78;5026542;28;20679;-65
2023/03/06 06:22:11;;;;;;;3.60;3.10;;;5.30;99.90;;;5.11;72.82;99671.78;5003542;28;20218;-65
2023/03/06 06:24:38;;;;;;;5.20;3.88;;;5.30;99.90;;;5.09;73.15;99668.47;5018303;28;20219;-64
2023/03/06 06:27:06;;;;;;;4.25;2.58;;;5.30;99.90;;;5.09;72.97;99668.47;5000525;28;20230;-65
2023/03/06 06:29:33;;;;;;;3.13;2.05;;;5.30;99.90;;;5.05;72.90;99664.41;5033876;28;20201;-65
2023/03/06 06:32:00;;;;;;;3.20;2.05;;;5.20;99.90;;;5.06;73.10;99672.09;5025473;28;20543;-64
2023/03/06 06:34:27;;;;;;;2.63;2.35;;;5.20;99.90;;;5.08;72.98;99671.97;5015065;28;20218;-65
2023/03/06 06:36:55;;;;;;;5.00;2.85;;;5.20;99.90;;;5.10;72.89;99676.13;5014451;28;20261;-65
2023/03/06 06:39:23;;;;;;;4.38;2.40;;;5.30;99.90;;;5.11;73.02;99680.34;5016124;28;20199;-65
2023/03/06 06:41:51;;;;;;;2.55;2.05;;;5.30;99.90;;;5.12;73.07;99682.03;5012786;28;20669;-65
2023/03/06 06:44:38;;;;;;;1.10;0.45;;;5.30;99.90;;;5.13;73.24;99675.91;5002209;28;20325;-65
2023/03/06 06:47:05;;;;;;;2.38;1.48;;;5.30;99.90;;;5.14;72.98;99681.91;5013311;28;20801;-65
2023/03/06 06:49:51;;;;;;;3.70;2.42;;;5.30;99.90;;;5.16;73.14;99685.22;5014996;28;20230;-64
2023/03/06 06:52:18;;;;;;;2.97;2.45;;;5.30;99.90;;;5.18;73.11;99683.38;5013295;28;20222;-65
2023/03/06 06:54:45;;;;;;;3.20;2.83;;;5.30;99.90;;;5.16;73.24;99690.41;5027522;28;20324;-65
2023/03/06 06:57:13;;;;;;;1.38;0.85;;;5.30;99.90;;;5.14;72.86;99687.94;5029137;28;20199;-65
2023/03/06 06:59:40;;;;;;;2.72;2.50;;;5.30;99.90;;;5.18;73.18;99691.13;5014402;28;20245;-65
2023/03/06 07:02:10;;;;;;;3.95;2.65;;;5.40;99.90;;;5.19;73.03;99691.06;4998079;28;20238;-65
2023/03/06 07:04:38;;;;;;;4.57;3.65;;;5.40;99.90;;;5.21;73.34;99696.13;5005155;28;20230;-65
2023/03/06 07:07:15;;;;;;;1.80;1.67;;;5.40;99.90;;;5.22;73.30;99700.34;5009950;28;20696;-65
2023/03/06 07:09:41;;;;;;;2.63;2.20;;;5.40;99.90;;;5.25;73.36;99706.16;5007946;28;20777;-65
2023/03/06 07:12:08;;;;;;;1.08;1.08;;;5.40;99.90;;;5.28;72.77;99703.38;5015333;28;20601;-65
2023/03/06 07:14:36;;;;;;;2.05;1.80;;;5.40;99.90;;;5.31;73.24;99710.09;5011114;28;20263;-65
2023/03/06 07:17:03;;;;;;;3.35;2.50;;;5.50;99.90;;;5.37;73.02;99699.34;5018726;28;20198;-65
2023/03/06 07:19:30;;;;;;;3.22;2.92;;;5.50;99.90;;;5.43;73.20;99699.78;5007284;28;20218;-65
2023/03/06 07:21:58;;;;;;;4.28;3.30;;;5.60;99.90;;;5.53;72.77;99694.84;5013822;28;20209;-66
2023/03/06 07:24:26;;;;;;;4.65;3.17;;;5.70;99.90;;;5.62;72.23;99691.66;5013825;28;20237;-65
2023/03/06 07:26:53;;;;;;;4.15;1.60;;;5.80;99.90;;;5.68;72.00;99693.00;5011793;28;20229;-65
2023/03/06 07:29:21;;;;;;;3.40;2.50;;;5.80;99.90;;;5.70;71.84;99691.97;5018734;28;20202;-65
2023/03/06 07:31:48;;;;;;;2.55;2.15;;;5.90;99.90;;;5.73;71.54;99680.59;5022156;28;20226;-66
2023/03/06 07:34:15;;;;;;;1.83;1.63;;;5.90;99.90;;;5.76;71.21;99676.03;5012148;28;20226;-65
2023/03/06 07:36:42;;;;;;;5.45;3.63;;;5.90;99.90;;;5.81;71.13;99679.16;5013733;28;20225;-64
2023/03/06 07:39:09;;;;;;;4.22;3.03;;;5.90;99.90;;;5.88;71.36;99680.41;5015621;28;20199;-65
2023/03/06 07:41:36;;;;;;;4.00;2.97;;;6.00;99.90;;;6.02;71.24;99674.31;5011736;28;20205;-66
2023/03/06 07:44:03;;;;;;;3.47;2.85;;;6.10;99.90;;;6.15;71.08;99677.72;5011021;28;20242;-64
2023/03/06 07:46:29;;;;;;;5.07;2.70;;;6.30;99.90;;;6.31;69.95;99687.81;5026597;28;20209;-65
2023/03/06 07:48:57;;;;;;;4.07;3.42;;;6.40;99.90;;;6.47;69.82;99672.88;5010877;28;20261;-64
2023/03/06 07:51:24;;;;;;;2.10;2.00;;;6.60;99.90;;;6.65;68.43;99681.94;5021576;28;20203;-65
2023/03/06 07:53:51;;;;;;;3.45;2.63;;;6.70;99.90;;;6.76;67.84;99689.78;5012427;28;20222;-65
2023/03/06 07:56:18;;;;;;;8.82;2.65;;;6.90;99.90;;;6.85;67.91;99696.94;5022742;28;20198;-64
2023/03/06 07:58:46;;;;;;;4.82;2.53;;;7.00;99.90;;;6.91;67.05;99699.06;5014736;28;20202;-64
2023/03/06 08:01:19;;;;;;;3.22;2.80;;;7.00;99.90;;;6.91;67.12;99694.72;5010379;28;20207;-65
2023/03/06 08:03:47;;;;;;;4.47;3.23;;;7.10;99.90;;;6.86;66.66;99689.03;5015776;28;20218;-66
2023/03/06 08:06:22;;;;;;;3.08;2.33;;;7.10;99.90;;;6.80;67.48;99704.19;5010817;28;20626;-65
2023/03/06 08:08:51;;;;;;;2.27;0.93;;;7.00;99.90;;;6.74;67.20;99707.22;5022453;28;20214;-65
2023/03/06 08:11:22;;;;;;;3.22;1.90;;;6.90;99.90;;;6.65;67.33;99708.69;5001397;28;20628;-65
2023/03/06 08:13:51;;;;;;;2.65;2.35;;;6.80;99.90;;;6.61;67.43;99716.78;5013118;28;20226;-65
2023/03/06 08:16:26;;;;;;;4.72;2.90;;;6.80;99.90;;;6.52;68.35;99709.66;5011471;28;20266;-65
2023/03/06 08:18:54;;;;;;;6.10;3.63;;;6.70;99.90;;;6.42;68.34;99717.25;5014047;28;20582;-64
2023/03/06 08:21:25;;;;;;;3.20;2.63;;;6.60;99.90;;;6.36;68.56;99711.66;5009505;28;20210;-64
2023/03/06 08:23:52;;;;;;;4.47;2.72;;;6.50;99.90;;;6.31;68.21;99713.72;5012154;28;20221;-65
2023/03/06 08:26:30;;;;;;;5.25;3.55;;;6.50;99.90;;;6.30;68.67;99720.69;5002772;28;20203;-64
2023/03/06 08:29:00;;;;;;;3.78;2.70;;;6.40;99.90;;;6.29;69.24;99721.63;5009077;28;20217;-65
2023/03/06 08:31:44;;;;;;;3.80;2.85;;;6.40;99.90;;;6.31;68.21;99713.72;5013081;28;20280;-64
2023/03/06 08:34:21;;;;;;;0.57;0.53;;;6.40;99.90;;;6.33;68.08;99715.28;5008340;28;20301;-65
2023/03/06 08:36:48;;;;;;;1.20;1.05;;;6.50;99.90;;;6.33;68.07;99719.63;5012841;28;20628;-64
2023/03/06 08:39:15;;;;;;;7.00;2.53;;;6.50;99.90;;;6.35;67.98;99728.13;5007554;28;20261;-65
2023/03/06 08:41:42;;;;;;;3.90;1.92;;;6.50;99.90;;;6.34;68.36;99716.97;5008236;28;20203;-65
2023/03/06 08:44:11;;;;;;;2.70;2.35;;;6.50;99.90;;;6.34;68.26;99719.56;5018714;28;20314;-65
2023/03/06 08:46:39;;;;;;;4.07;2.28;;;6.50;99.90;;;6.35;68.07;99725.53;5010910;28;20671;-64
2023/03/06 08:49:06;;;;;;;1.38;1.15;;;6.40;99.90;;;6.37;67.46;99723.69;5006252;28;20234;-65
2023/03/06 08:51:32;;;;;;;0.88;0.60;;;6.50;99.90;;;6.37;66.99;99727.09;5002678;28;20618;-64
2023/03/06 08:53:59;;;;;;;3.03;2.47;;;6.50;99.90;;;6.38;67.06;99733.09;5013038;28;20213;-64
2023/03/06 08:56:30;;;;;;;3.78;2.35;;;6.50;99.90;;;6.37;67.06;99734.06;5017640;28;20289;-64
2023/03/06 08:59:00;;;;;;;3.47;2.03;;;6.50;99.90;;;6.37;67.08;99731.47;5017005;28;20683;-65
2023/03/06 09:01:33;;;;;;;4.38;3.17;;;6.50;99.90;;;6.36;66.70;99737.56;5023451;28;20706;-63
2023/03/06 09:04:05;;;;;;;6.03;2.40;;;6.50;99.90;;;6.33;66.92;99738.59;5014910;28;20656;-63
2023/03/06 09:06:37;;;;;;;4.55;3.00;;;6.50;99.90;;;6.34;66.56;99729.06;4998664;28;20759;-64
2023/03/06 09:09:05;;;;;;;2.97;1.85;;;6.50;99.90;;;6.35;66.79;99728.97;5010434;28;20316;-64
2023/03/06 09:11:33;;;;;;;5.50;3.50;;;6.50;99.90;;;6.35;67.31;99728.97;5010188;28;20677;-64
2023/03/06 09:14:00;;;;;;;4.75;2.83;;;6.50;99.90;;;6.33;66.96;99730.00;5012900;28;20740;-64
2023/03/06 09:16:27;;;;;;;5.30;3.30;;;6.50;99.90;;;6.31;66.90;99729.28;5008638;28;20690;-64
2023/03/06 09:18:54;;;;;;;5.07;2.78;;;6.40;99.90;;;6.31;67.41;99734.44;5010489;28;20209;-64
2023/03/06 09:21:22;;;;;;;0.95;0.95;;;6.40;99.90;;;6.32;66.94;99733.53;5010413;28;20217;-64
2023/03/06 09:23:50;;;;;;;4.35;2.88;;;6.40;99.90;;;6.34;67.52;99721.31;5012400;28;20227;-64
2023/03/06 09:26:17;;;;;;;1.38;0.68;;;6.50;99.90;;;6.33;67.26;99728.25;5009866;28;20734;-64
2023/03/06 09:28:45;;;;;;;1.50;1.35;;;6.50;99.90;;;6.34;66.80;99729.91;5010055;28;20222;-64
2023/03/06 09:31:18;;;;;;;2.70;2.47;;;6.50;99.90;;;6.36;66.83;99730.63;5006126;28;20245;-64
2023/03/06 09:33:47;;;;;;;3.05;2.78;;;6.50;99.90;;;6.39;66.89;99727.00;5010727;28;20218;-65
2023/03/06 09:36:18;;;;;;;2.28;1.95;;;6.50;99.90;;;6.43;66.80;99726.66;5009924;28;20253;-64
2023/03/06 09:38:47;;;;;;;6.28;4.20;;;6.60;99.90;;;6.46;66.88;99731.66;5011171;28;20206;-64
2023/03/06 09:41:33;;;;;;;4.88;3.13;;;6.60;99.90;;;6.59;67.01;99740.22;5005716;28;20208;-64
2023/03/06 09:44:21;;;;;;;2.42;2.22;;;6.70;99.90;;;6.68;66.52;99731.81;5011916;28;20236;-64
2023/03/06 09:47:27;;;;;;;6.22;2.28;;;6.80;99.90;;;6.78;65.74;99729.41;5009602;28;20206;-64
2023/03/06 09:50:16;;;;;;;3.53;3.03;;;6.90;99.90;;;6.84;65.32;99731.56;5025332;28;20194;-66
2023/03/06 09:53:16;;;;;;;3.55;2.88;;;6.90;99.90;;;6.90;65.51;99728.53;5009056;28;20195;-65
2023/03/06 09:55:50;;;;;;;3.75;2.42;;;7.00;99.90;;;7.00;65.49;99726.94;5007621;28;20217;-65
2023/03/06 09:58:24;;;;;;;5.65;3.70;;;7.10;99.90;;;7.17;65.01;99725.72;5009511;28;20202;-65
2023/03/06 10:01:23;;;;;;;4.35;3.33;;;7.20;99.90;;;7.39;63.86;99733.63;5009830;28;20206;-65
2023/03/06 10:04:11;;;;;;;3.50;3.00;;;7.40;99.90;;;7.57;63.42;99733.09;5019922;28;20265;-66
2023/03/06 10:06:50;;;;;;;5.03;3.33;;;7.60;99.90;;;7.69;63.37;99729.59;5008251;28;20634;-65
2023/03/06 10:09:41;;;;;;;7.03;4.33;;;7.80;99.90;;;7.76;62.91;99735.16;5014249;28;20748;-66
2023/03/06 10:12:41;;;;;;;3.10;2.77;;;7.90;99.90;;;7.71;62.34;99727.69;5008093;28;20637;-66
2023/03/06 10:15:27;;;;;;;5.17;2.20;;;7.80;99.90;;;7.67;61.92;99735.84;5003845;28;20749;-65
2023/03/06 10:17:55;;;;;;;3.63;2.70;;;7.80;99.90;;;7.61;61.75;99731.09;5007877;28;20768;-65
2023/03/06 10:20:40;;;;;;;4.70;3.60;;;7.70;99.90;;;7.48;62.53;99736.38;5008923;28;20771;-65
2023/03/06 10:23:32;;;;;;;2.70;2.37;;;7.60;99.90;;;7.40;63.38;99737.88;5008691;28;20206;-65
2023/03/06 10:26:01;;;;;;;3.17;2.07;;;7.50;99.90;;;7.34;63.91;99738.31;5006989;28;20633;-66
2023/03/06 10:29:09;;;;;;;5.07;2.90;;;7.40;99.90;;;7.29;64.10;99730.88;5009670;28;20668;-66
2023/03/06 10:31:39;;;;;;;4.70;2.70;;;7.40;99.90;;;7.32;63.87;99735.00;5007405;28;20641;-65
2023/03/06 10:34:32;;;;;;;4.97;2.00;;;7.40;99.90;;;7.36;64.43;99742.47;5007579;28;20701;-65
2023/03/06 10:37:16;;;;;;;5.05;4.10;;;7.50;99.90;;;7.37;63.51;99738.09;5001791;28;20625;-64
2023/03/06 10:39:43;;;;;;;5.03;3.50;;;7.50;99.90;;;7.38;63.68;99734.56;5009242;28;20202;-65
2023/03/06 10:42:11;;;;;;;3.05;2.70;;;7.50;99.90;;;7.46;63.59;99730.47;5002134;28;20290;-66
2023/03/06 10:44:37;;;;;;;2.90;1.77;;;7.60;99.90;;;7.61;62.77;99741.47;5041256;23;20682;-66